Time;durP1;ratioP1;P1;durP2;ratioP2;P2;SDS_P1;SDS_P2;PMS_P1;PMS_P2;Temp;Humidity;BMP_temperature;BMP_pressure;BME280_temperature;BME280_humidity;BME280_pressure;Samples;Min_cycle;Max_cycle;Signal;HPM_P1;HPM_P2
2022/11/13 00:00:04;;;;;;;42.65;20.73;;;;;;;8.15;59.63;101397.44;4411739;32;20151;-90
2022/11/13 00:02:32;;;;;;;39.70;20.10;;;;;;;8.15;59.63;101405.22;4426343;32;20174;-89
2022/11/13 00:04:57;;;;;;;38.10;19.25;;;;;;;8.09;59.62;101389.63;4424243;32;20089;-88
2022/11/13 00:07:22;;;;;;;36.63;19.37;;;;;;;8.19;59.63;101388.78;4412624;32;32049;-90
2022/11/13 00:09:48;;;;;;;40.35;19.83;;;;;;;8.13;59.63;101395.69;4410958;32;27089;-89
2022/11/13 00:12:14;;;;;;;39.08;18.60;;;;;;;8.23;59.64;101392.25;4424252;32;20132;-89
2022/11/13 00:14:40;;;;;;;36.00;19.15;;;;;;;8.05;59.62;101389.63;4411772;32;20093;-89
2022/11/13 00:17:05;;;;;;;37.28;19.25;;;;;;;7.89;59.61;101394.72;4428984;32;20085;-88
2022/11/13 00:19:30;;;;;;;38.13;18.92;;;;;;;7.93;59.62;101386.09;4425374;32;28874;-91
2022/11/13 00:21:58;;;;;;;37.95;18.67;;;;;;;7.91;59.61;101392.13;4413512;32;29185;-88
2022/11/13 00:24:24;;;;;;;37.22;19.08;;;;;;;7.98;59.62;101393.88;4427269;32;20089;-89
2022/11/13 00:26:49;;;;;;;39.97;19.52;;;;;;;7.86;59.62;101397.28;4439680;32;20113;-89
2022/11/13 00:29:14;;;;;;;42.55;20.70;;;;;;;7.76;59.62;101403.25;4411700;32;32278;-89
2022/11/13 00:31:40;;;;;;;40.97;21.50;;;;;;;7.67;59.60;101401.50;4424197;32;20148;-88
2022/11/13 00:34:05;;;;;;;40.90;20.45;;;;;;;7.63;59.60;101399.75;4423702;32;22325;-89
2022/11/13 00:36:30;;;;;;;36.85;19.60;;;;;;;7.58;59.60;101398.00;4423824;32;21363;-89
2022/11/13 00:38:56;;;;;;;40.08;20.27;;;;;;;7.60;59.59;101397.16;4417361;32;26558;-88
2022/11/13 00:41:22;;;;;;;33.58;17.40;;;;;;;7.68;59.60;101402.38;4421845;32;20163;-89
2022/11/13 00:43:47;;;;;;;42.28;20.23;;;;;;;7.70;59.61;101400.66;4427816;32;20151;-89
2022/11/13 00:46:12;;;;;;;39.00;20.98;;;;;;;7.57;59.60;101401.41;4423735;32;20103;-89
2022/11/13 00:48:38;;;;;;;40.50;19.80;;;;;;;7.40;59.59;101398.72;4411267;32;33021;-88
2022/11/13 00:51:03;;;;;;;38.17;19.75;;;;;;;7.43;59.59;101393.56;4406821;32;20120;-89
2022/11/13 00:53:29;;;;;;;37.67;19.52;;;;;;;7.62;59.59;101387.66;4424643;32;20134;-89
2022/11/13 00:55:54;;;;;;;34.40;18.60;;;;;;;7.54;59.59;101386.72;4423312;32;32313;-89
2022/11/13 00:58:19;;;;;;;38.38;19.17;;;;;;;7.51;59.60;101384.09;4415611;32;20158;-88
2022/11/13 01:00:45;;;;;;;40.17;19.52;;;;;;;7.41;59.59;101392.69;4423430;32;27491;-89
2022/11/13 01:03:11;;;;;;;31.65;17.52;;;;;;;7.40;59.59;101388.38;4423749;32;20133;-89
2022/11/13 01:05:37;;;;;;;38.70;17.75;;;;;;;7.40;59.59;101388.38;4423872;32;20105;-88
2022/11/13 01:08:03;;;;;;;35.72;18.08;;;;;;;7.36;59.59;101384.03;4431112;32;20132;-89
2022/11/13 01:10:28;;;;;;;37.10;19.30;;;;;;;7.36;59.59;101389.19;4421494;32;20113;-89
2022/11/13 01:12:53;;;;;;;40.65;20.08;;;;;;;7.34;59.58;101390.91;4423093;32;26358;-89
2022/11/13 01:15:19;;;;;;;36.58;19.60;;;;;;;7.36;59.59;101386.63;4422845;32;34338;-89
2022/11/13 01:17:44;;;;;;;38.28;20.08;;;;;;;7.24;59.58;101387.38;4420323;32;29871;-89
2022/11/13 01:20:10;;;;;;;40.97;20.17;;;;;;;7.31;59.58;101380.50;4420068;32;20164;-88
2022/11/13 01:22:35;;;;;;;41.03;19.55;;;;;;;7.37;59.59;101380.56;4422012;32;20394;-89
2022/11/13 01:25:01;;;;;;;38.47;19.62;;;;;;;7.39;59.58;101376.25;4405567;32;23029;-89
2022/11/13 01:27:26;;;;;;;39.05;19.10;;;;;;;7.29;59.58;101370.13;4424412;32;20163;-88
2022/11/13 01:29:51;;;;;;;36.05;18.98;;;;;;;7.37;59.58;101375.41;4411094;32;22583;-88
2022/11/13 01:32:17;;;;;;;33.90;19.05;;;;;;;7.28;59.58;101375.31;4416314;32;28791;-89
2022/11/13 01:34:42;;;;;;;37.22;17.95;;;;;;;7.17;59.57;101366.59;4439077;32;25667;-89
2022/11/13 01:37:07;;;;;;;44.63;19.10;;;;;;;7.19;59.58;101364.88;4426733;32;20163;-89
2022/11/13 01:39:33;;;;;;;35.30;18.35;;;;;;;7.22;59.58;101364.91;4428368;32;34907;-89
2022/11/13 01:41:59;;;;;;;34.10;17.37;;;;;;;7.25;59.59;101370.09;4430155;32;30403;-89
2022/11/13 01:44:24;;;;;;;40.03;17.83;;;;;;;7.37;59.59;101354.66;4426683;32;20290;-89
2022/11/13 01:46:54;;;;;;;40.60;19.10;;;;;;;7.39;59.58;101358.13;4422967;32;21386;-89
2022/11/13 01:49:35;;;;;;;33.55;16.67;;;;;;;7.31;59.58;101359.78;4426563;32;20108;-89
2022/11/13 01:52:03;;;;;;;40.22;18.83;;;;;;;7.30;59.58;101358.06;4425943;32;20093;-88
2022/11/13 01:54:31;;;;;;;42.90;19.35;;;;;;;7.35;59.58;101361.56;4413095;32;20093;-89
2022/11/13 01:56:56;;;;;;;46.45;20.52;;;;;;;7.39;59.58;101355.53;4441200;32;20124;-88
2022/11/13 01:59:24;;;;;;;45.20;20.30;;;;;;;7.25;59.58;101345.06;4412516;32;20105;-89
2022/11/13 02:01:50;;;;;;;43.15;20.65;;;;;;;7.35;59.59;101338.25;4425585;32;20099;-89
2022/11/13 02:04:15;;;;;;;45.47;19.25;;;;;;;7.31;59.58;101339.06;4425294;32;20109;-89
2022/11/13 02:06:45;;;;;;;48.85;19.80;;;;;;;7.28;59.58;101339.03;4427171;32;20144;-89
2022/11/13 02:09:10;;;;;;;46.33;20.47;;;;;;;7.27;59.58;101337.31;4420607;32;20127;-89
2022/11/13 02:11:36;;;;;;;40.20;19.05;;;;;;;7.33;59.59;101332.16;4422482;32;22307;-88
2022/11/13 02:14:01;;;;;;;66.05;21.52;;;;;;;7.14;59.57;101327.75;4424600;32;31464;-89
2022/11/13 02:16:26;;;;;;;44.50;20.48;;;;;;;7.16;59.57;101334.66;4416460;32;28530;-89
2022/11/13 02:18:52;;;;;;;45.12;18.98;;;;;;;6.98;59.57;101335.37;4426735;32;33227;-90
2022/11/13 02:21:39;;;;;;;55.67;20.88;;;;;;;6.94;59.55;101333.62;4405529;32;27584;-89
2022/11/13 02:24:23;;;;;;;51.03;22.33;;;;;;;6.84;59.55;101334.38;4444540;32;20157;-89
2022/11/13 02:26:48;;;;;;;62.33;22.95;;;;;;;6.96;59.57;101334.50;4454659;32;20108;-89
2022/11/13 02:29:14;;;;;;;59.92;21.85;;;;;;;6.98;59.57;101337.97;4414301;32;34097;-89
2022/11/13 02:31:39;;;;;;;58.83;20.30;;;;;;;7.03;59.57;101320.75;4428102;32;26348;-89
2022/11/13 02:34:04;;;;;;;41.92;20.52;;;;;;;7.04;59.57;101330.25;4428843;32;20111;-89
2022/11/13 02:36:30;;;;;;;61.37;20.67;;;;;;;7.09;59.57;101323.38;4441646;32;20147;-87
2022/11/13 02:38:56;;;;;;;52.58;19.48;;;;;;;6.99;59.57;101324.16;4428399;32;24168;-89
2022/11/13 02:41:22;;;;;;;39.83;19.02;;;;;;;6.93;59.56;101331.91;4416216;32;20111;-89
2022/11/13 02:43:47;;;;;;;43.35;19.23;;;;;;;6.82;59.56;101320.56;4415481;32;29689;-89
2022/11/13 02:46:13;;;;;;;41.47;18.67;;;;;;;6.94;59.55;101320.69;4415584;32;22303;-90
2022/11/13 02:48:38;;;;;;;41.63;19.37;;;;;;;6.82;59.55;101324.87;4415408;32;29495;-89
2022/11/13 02:51:03;;;;;;;41.13;18.87;;;;;;;6.97;59.57;101312.94;4428529;32;20162;-89
2022/11/13 02:53:29;;;;;;;44.35;18.55;;;;;;;6.68;59.55;101314.44;4416113;32;20438;-89
2022/11/13 02:55:54;;;;;;;39.42;18.05;;;;;;;6.66;59.55;101317.00;4428880;32;20121;-89
2022/11/13 02:58:20;;;;;;;36.22;18.55;;;;;;;6.76;59.55;101326.56;4415501;32;20148;-89
2022/11/13 03:00:45;;;;;;;49.53;19.27;;;;;;;6.70;59.55;101323.94;4427994;32;29174;-89
2022/11/13 03:03:10;;;;;;;30.90;16.98;;;;;;;6.77;59.55;101330.03;4428547;32;20422;-88
2022/11/13 03:05:36;;;;;;;35.50;18.58;;;;;;;6.80;59.56;101327.47;4428551;32;20161;-89
2022/11/13 03:08:01;;;;;;;35.97;17.65;;;;;;;6.71;59.55;101328.25;4440856;32;20120;-88
2022/11/13 03:10:26;;;;;;;27.17;15.63;;;;;;;6.64;59.54;101333.38;4415789;32;20478;-88
2022/11/13 03:12:52;;;;;;;32.80;16.62;;;;;;;6.66;59.55;101332.53;4441154;32;20157;-87
2022/11/13 03:15:17;;;;;;;32.10;17.75;;;;;;;6.83;59.56;101331.78;4427969;32;27962;-88
2022/11/13 03:17:43;;;;;;;35.03;16.70;;;;;;;6.72;59.54;101336.88;4428350;32;20449;-88
2022/11/13 03:20:08;;;;;;;34.83;17.73;;;;;;;6.68;59.55;101335.13;4441303;32;20101;-88
2022/11/13 03:22:34;;;;;;;33.75;17.62;;;;;;;6.57;59.54;101340.19;4441431;32;20105;-88
2022/11/13 03:24:59;;;;;;;35.65;16.62;;;;;;;6.70;59.55;101334.28;4427962;32;25808;-88
2022/11/13 03:27:24;;;;;;;33.13;16.60;;;;;;;6.58;59.55;101335.88;4414830;32;33613;-87
2022/11/13 03:29:50;;;;;;;33.80;15.68;;;;;;;6.67;59.55;101334.25;4440741;32;22569;-88
2022/11/13 03:32:15;;;;;;;35.17;17.23;;;;;;;6.66;59.55;101332.53;4440427;32;33860;-88
2022/11/13 03:34:41;;;;;;;33.05;16.62;;;;;;;6.56;59.53;101328.09;4415304;32;20526;-88
2022/11/13 03:37:06;;;;;;;34.08;16.45;;;;;;;6.55;59.54;101328.94;4440546;32;29288;-88
2022/11/13 03:39:31;;;;;;;34.85;17.35;;;;;;;6.28;59.53;101332.13;4442072;32;20172;-88
2022/11/13 03:41:57;;;;;;;38.72;17.15;;;;;;;6.44;59.54;101331.44;4427909;32;20143;-87
2022/11/13 03:44:22;;;;;;;31.00;16.17;;;;;;;6.31;59.53;101332.16;4422170;32;22746;-87
2022/11/13 03:46:47;;;;;;;37.88;18.23;;;;;;;6.34;59.53;101339.94;4435570;32;24366;-87
2022/11/13 03:49:13;;;;;;;35.40;16.85;;;;;;;6.36;59.54;101339.97;4431006;32;25388;-87
2022/11/13 03:51:38;;;;;;;31.55;16.42;;;;;;;6.35;59.52;101336.50;4412986;32;33138;-87
2022/11/13 03:54:04;;;;;;;32.28;15.95;;;;;;;6.28;59.52;101339.03;4440659;32;20139;-89
2022/11/13 03:56:29;;;;;;;35.78;16.05;;;;;;;6.43;59.54;101326.25;4412731;32;20373;-88
2022/11/13 03:58:54;;;;;;;39.70;16.75;;;;;;;6.67;59.55;101321.31;4412172;32;27343;-90
2022/11/13 04:01:20;;;;;;;55.80;17.62;;;;;;;6.52;59.54;101325.47;4423206;32;20114;-89
2022/11/13 04:03:45;;;;;;;57.65;18.15;;;;;;;6.38;59.53;101323.59;4427962;32;20089;-89
2022/11/13 04:06:10;;;;;;;54.15;16.67;;;;;;;6.30;59.53;101333.00;4414612;32;32302;-89
2022/11/13 04:08:36;;;;;;;56.97;16.25;;;;;;;6.12;59.51;101322.47;4427525;32;24054;-88
2022/11/13 04:11:08;;;;;;;30.25;15.18;;;;;;;6.18;59.52;101324.28;4440321;32;33784;-88
2022/11/13 04:13:34;;;;;;;34.10;14.75;;;;;;;6.01;59.51;101334.41;4455179;32;20143;-88
2022/11/13 04:15:59;;;;;;;45.78;16.67;;;;;;;6.04;59.51;101334.44;4428939;32;37178;-89
2022/11/13 04:18:24;;;;;;;29.95;15.35;;;;;;;6.03;59.51;101332.72;4429633;32;20109;-88
2022/11/13 04:20:50;;;;;;;28.10;15.27;;;;;;;6.09;59.52;101337.94;4441404;32;22046;-89
2022/11/13 04:23:16;;;;;;;54.03;16.70;;;;;;;6.10;59.51;101329.34;4444544;32;20114;-89
2022/11/13 04:25:42;;;;;;;93.18;16.58;;;;;;;6.03;59.51;101324.94;4437742;32;20154;-90
2022/11/13 04:28:08;;;;;;;49.05;16.73;;;;;;;6.05;59.51;101331.00;4433618;32;20085;-90
2022/11/13 04:30:34;;;;;;;39.88;14.82;;;;;;;6.00;59.51;101330.97;4415714;32;20077;-92
2022/11/13 04:32:59;;;;;;;47.90;15.30;;;;;;;6.06;59.52;101327.56;4414898;32;33428;-92
2022/11/13 04:35:24;;;;;;;57.85;15.80;;;;;;;6.06;59.52;101335.31;4415868;32;20117;-90
2022/11/13 04:37:50;;;;;;;48.70;15.23;;;;;;;6.05;59.50;101331.87;4414697;32;23393;-90
2022/11/13 04:40:16;;;;;;;42.88;14.87;;;;;;;6.00;59.51;101330.97;4427996;32;20101;-91
2022/11/13 04:42:47;;;;;;;59.03;15.70;;;;;;;5.99;59.51;101338.69;4428121;32;20401;-91
2022/11/13 04:45:13;;;;;;;83.37;19.17;;;;;;;6.02;59.51;101328.37;4429354;32;20117;-91
2022/11/13 04:47:38;;;;;;;87.15;18.10;;;;;;;6.23;59.53;101331.22;4427942;32;20140;-90
2022/11/13 04:50:04;;;;;;;78.75;16.33;;;;;;;6.10;59.52;101326.75;4427419;32;23976;-90
2022/11/13 04:52:29;;;;;;;104.93;19.73;;;;;;;6.01;59.51;101324.94;4415281;32;20113;-91
2022/11/13 04:54:55;;;;;;;103.05;17.35;;;;;;;6.08;59.52;101321.56;4427739;32;20113;-90
2022/11/13 04:57:20;;;;;;;114.85;18.05;;;;;;;6.09;59.52;101325.88;4427765;32;20117;-90
2022/11/13 04:59:45;;;;;;;82.90;16.77;;;;;;;6.25;59.52;101320.91;4427528;32;20171;-90
2022/11/13 05:02:11;;;;;;;96.28;17.98;;;;;;;6.19;59.52;101320.84;4414755;32;20104;-90
2022/11/13 05:04:36;;;;;;;50.45;17.45;;;;;;;6.37;59.53;101315.84;4414784;32;20650;-91
2022/11/13 05:07:01;;;;;;;116.32;17.85;;;;;;;6.23;59.53;101312.25;4414991;32;20180;-90
2022/11/13 05:09:27;;;;;;;103.47;19.20;;;;;;;6.25;59.52;101321.75;4415155;32;20085;-92
2022/11/13 05:11:52;;;;;;;43.92;16.25;;;;;;;6.34;59.53;101324.44;4414557;32;29512;-93
2022/11/13 05:14:18;;;;;;;48.60;15.10;;;;;;;6.23;59.53;101325.19;4414836;32;22785;-91
2022/11/13 05:16:43;;;;;;;52.72;16.08;;;;;;;6.33;59.53;101316.66;4414407;32;23353;-91
2022/11/13 05:19:09;;;;;;;104.47;18.52;;;;;;;6.33;59.53;101317.53;4414781;32;20148;-91
2022/11/13 05:21:35;;;;;;;96.35;17.45;;;;;;;6.39;59.53;101317.63;4427858;32;20493;-91
2022/11/13 05:24:00;;;;;;;38.92;15.82;;;;;;;6.36;59.54;101316.69;4427759;32;20108;-91
2022/11/13 05:26:25;;;;;;;75.20;17.05;;;;;;;6.53;59.54;101322.03;4414834;32;20127;-90
2022/11/13 05:28:51;;;;;;;61.25;16.70;;;;;;;6.47;59.54;101322.84;4414805;32;20414;-91
2022/11/13 05:31:17;;;;;;;64.25;16.55;;;;;;;6.53;59.54;101322.91;4414036;32;20129;-90
2022/11/13 05:33:42;;;;;;;51.25;14.90;;;;;;;6.57;59.54;101323.78;4427185;32;20162;-90
2022/11/13 05:36:09;;;;;;;77.50;17.55;;;;;;;6.63;59.54;101319.56;4427000;32;21971;-91
2022/11/13 05:38:35;;;;;;;133.30;20.02;;;;;;;6.83;59.56;101313.66;4414794;32;20109;-91
2022/11/13 05:41:08;;;;;;;57.47;17.50;;;;;;;6.74;59.55;101310.16;4414381;32;20116;-89
2022/11/13 05:43:34;;;;;;;57.62;16.55;;;;;;;6.93;59.56;101313.78;4427728;32;20135;-88
2022/11/13 05:46:11;;;;;;;76.20;15.48;;;;;;;6.57;59.54;101316.91;4427004;32;20105;-89
2022/11/13 05:48:36;;;;;;;119.03;16.35;;;;;;;6.59;59.55;101309.16;4415534;32;20603;-90
2022/11/13 05:51:06;;;;;;;40.03;14.90;;;;;;;6.52;59.54;101310.81;4426838;32;28160;-90
2022/11/13 05:53:35;;;;;;;38.17;15.27;;;;;;;6.75;59.55;101305.84;4427346;32;20140;-89
2022/11/13 05:56:05;;;;;;;56.15;15.77;;;;;;;6.75;59.55;101303.25;4415009;32;20158;-89
2022/11/13 05:58:30;;;;;;;43.40;15.38;;;;;;;6.76;59.55;101312.75;4414729;32;20150;-88
2022/11/13 06:01:21;;;;;;;38.42;15.00;;;;;;;6.80;59.55;101290.34;4426958;32;20409;-90
2022/11/13 06:03:47;;;;;;;47.62;15.20;;;;;;;6.95;59.57;101291.34;4439816;32;20108;-89
2022/11/13 06:06:14;;;;;;;34.35;15.38;;;;;;;6.88;59.56;101291.31;4427084;32;20108;-91
2022/11/13 06:08:39;;;;;;;44.08;15.35;;;;;;;6.73;59.56;101299.81;4414541;32;20102;-89
2022/11/13 06:11:10;;;;;;;32.22;14.48;;;;;;;6.81;59.56;101295.53;4427271;32;20140;-91
2022/11/13 06:13:35;;;;;;;42.13;15.35;;;;;;;6.75;59.55;101296.38;4427582;32;20500;-89
2022/11/13 06:16:05;;;;;;;41.37;14.38;;;;;;;6.78;59.55;101305.88;4426211;32;31177;-89
2022/11/13 06:18:31;;;;;;;30.98;15.25;;;;;;;6.86;59.55;101305.94;4439564;32;20101;-89
2022/11/13 06:21:06;;;;;;;81.20;16.87;;;;;;;6.92;59.56;101304.28;4438981;32;31984;-89
2022/11/13 06:23:33;;;;;;;40.12;16.80;;;;;;;6.80;59.55;101300.72;4414755;32;20982;-90
2022/11/13 06:26:02;;;;;;;77.75;16.75;;;;;;;6.83;59.56;101309.34;4439806;32;20131;-90
2022/11/13 06:28:28;;;;;;;45.42;16.48;;;;;;;7.04;59.57;101298.31;4427366;32;20093;-90
2022/11/13 06:30:53;;;;;;;60.33;17.25;;;;;;;7.01;59.56;101306.91;4414200;32;20451;-91
2022/11/13 06:33:19;;;;;;;69.65;15.77;;;;;;;7.02;59.57;101308.66;4426682;32;20474;-90
2022/11/13 06:35:44;;;;;;;54.72;14.93;;;;;;;6.81;59.56;101310.22;4414093;32;20660;-90
2022/11/13 06:38:09;;;;;;;40.88;15.57;;;;;;;7.05;59.57;101303.50;4413507;32;23964;-87
2022/11/13 06:40:37;;;;;;;58.28;15.85;;;;;;;6.99;59.57;101303.47;4439408;32;20943;-91
2022/11/13 06:43:02;;;;;;;33.90;14.38;;;;;;;6.97;59.57;101309.47;4415384;32;20101;-89
2022/11/13 06:45:27;;;;;;;38.85;14.45;;;;;;;6.88;59.56;101314.59;4428070;32;30286;-89
2022/11/13 06:47:53;;;;;;;45.90;16.90;;;;;;;6.93;59.56;101310.31;4415738;32;21373;-90
2022/11/13 06:50:19;;;;;;;47.13;16.23;;;;;;;7.01;59.56;101313.81;4416691;32;20135;-89
2022/11/13 06:52:44;;;;;;;42.08;15.63;;;;;;;7.13;59.58;101313.06;4416157;32;20449;-90
2022/11/13 06:55:09;;;;;;;63.83;15.50;;;;;;;7.30;59.58;101317.47;4417236;32;20085;-91
2022/11/13 06:57:35;;;;;;;45.38;14.87;;;;;;;7.32;59.58;101317.47;4417944;32;21248;-90
2022/11/13 07:00:00;;;;;;;113.43;17.58;;;;;;;7.48;59.60;101321.03;4421522;32;20162;-90
2022/11/13 07:02:25;;;;;;;89.05;19.33;;;;;;;7.23;59.58;101315.72;4431734;32;20507;-91
2022/11/13 07:04:51;;;;;;;82.20;18.02;;;;;;;7.32;59.58;101327.84;4430906;32;20444;-90
2022/11/13 07:07:16;;;;;;;44.42;14.80;;;;;;;7.44;59.59;101329.66;4422882;32;20136;-90
2022/11/13 07:09:42;;;;;;;41.03;14.85;;;;;;;7.33;59.59;101326.97;4418328;32;22627;-90
2022/11/13 07:12:07;;;;;;;30.00;14.57;;;;;;;7.45;59.59;101328.81;4415862;32;20161;-90
2022/11/13 07:14:32;;;;;;;54.60;15.05;;;;;;;7.67;59.60;101331.53;4428743;32;20136;-88
2022/11/13 07:16:58;;;;;;;35.65;15.02;;;;;;;7.63;59.60;101334.97;4454652;32;31698;-90
2022/11/13 07:19:23;;;;;;;55.65;15.98;;;;;;;7.95;59.62;101324.72;4416752;32;30699;-87
2022/11/13 07:21:48;;;;;;;40.03;14.60;;;;;;;7.73;59.61;101335.84;4430946;32;20102;-91
2022/11/13 07:24:14;;;;;;;42.00;15.75;;;;;;;7.77;59.62;101331.56;4417324;32;22072;-90
2022/11/13 07:26:39;;;;;;;30.83;15.98;;;;;;;8.05;59.62;101328.25;4415946;32;20152;-89
2022/11/13 07:29:05;;;;;;;42.22;16.95;;;;;;;8.36;59.64;101323.16;4415539;32;20113;-90
2022/11/13 07:31:30;;;;;;;41.37;17.33;;;;;;;8.41;59.65;101316.25;4416160;32;20898;-89
2022/11/13 07:33:55;;;;;;;55.17;19.37;;;;;;;8.53;59.66;101318.88;4440642;32;35809;-90
2022/11/13 07:36:21;;;;;;;65.95;19.33;;;;;;;8.61;59.66;101325.81;4415725;32;20111;-89
2022/11/13 07:38:46;;;;;;;73.28;19.27;;;;;;;8.66;59.67;101315.41;4415253;32;22847;-90
2022/11/13 07:41:12;;;;;;;109.10;21.12;;;;;;;8.70;59.66;101318.88;4415889;32;20516;-90
2022/11/13 07:43:37;;;;;;;48.38;18.48;;;;;;;8.54;59.65;101324.06;4415007;32;32098;-89
2022/11/13 07:46:02;;;;;;;46.85;19.48;;;;;;;8.71;59.66;101321.47;4415524;32;20468;-89
2022/11/13 07:48:28;;;;;;;63.58;18.92;;;;;;;8.90;59.68;101330.12;4415483;32;20190;-88
2022/11/13 07:54:59;;;;;;;53.28;18.83;;;;;;;9.07;59.68;101317.16;4440914;32;20147;-95
2022/11/13 09:43:41;;;;;;;36.92;19.52;;;;;;;12.25;59.85;101278.31;5071224;26;20113;-89
2022/11/13 09:46:37;;;;;;;36.33;18.90;;;;;;;12.37;59.86;101272.06;4411522;32;20183;-90
2022/11/13 09:49:23;;;;;;;40.03;20.05;;;;;;;12.45;59.86;101267.56;4457108;27;20104;-91
2022/11/13 09:51:53;;;;;;;35.63;19.40;;;;;;;12.32;59.85;101266.03;4397222;32;20074;-90
2022/11/13 09:54:19;;;;;;;32.25;18.37;;;;;;;12.53;59.87;101265.69;4414630;32;20145;-90
2022/11/13 09:57:17;;;;;;;33.88;19.55;;;;;;;12.54;59.87;101262.22;4383347;32;20171;-90
2022/11/13 10:00:02;;;;;;;40.12;20.83;;;;;;;12.46;59.87;101260.59;4395693;32;20156;-89
2022/11/13 10:13:22;;;;;;;41.65;21.35;;;;;;;12.58;59.88;101245.59;4402567;27;20089;-93
2022/11/13 10:16:29;;;;;;;47.08;22.95;;;;;;;12.59;59.87;101226.44;4353985;32;20090;-93
2022/11/13 10:19:01;;;;;;;49.15;22.85;;;;;;;12.68;59.88;101227.16;4363829;32;20637;-90
2022/11/13 10:25:01;;;;;;;51.35;24.63;;;;;;;13.13;59.91;101217.63;4377409;32;20146;-91
2022/11/13 10:27:29;;;;;;;44.83;23.15;;;;;;;13.10;59.90;101215.94;4340525;32;20217;-90
2022/11/13 10:29:55;;;;;;;50.05;24.50;;;;;;;12.94;59.89;101217.09;4339628;32;20178;-89
2022/11/13 10:32:31;;;;;;;47.88;24.23;;;;;;;13.08;59.89;101217.72;4363939;32;20234;-92
2022/11/13 10:35:00;;;;;;;42.55;22.23;;;;;;;13.22;59.90;101207.00;4352481;32;20436;-90
2022/11/13 16:49:19;;;;;;;;;;;;;;;;;;;;;
2022/11/13 16:52:35;;;;;;;78.90;39.75;;;;;;;11.00;59.79;100981.88;4404954;32;35427;-96
2022/11/13 16:55:34;;;;;;;98.30;48.72;;;;;;;11.05;59.79;100972.25;4382956;32;20908;-96
2022/11/13 17:07:38;;;;;;;113.37;51.17;;;;;;;10.63;59.77;100976.28;4705838;27;20124;-96
2022/11/13 17:13:34;;;;;;;119.93;52.85;;;;;;;10.60;59.76;100986.75;5150780;27;20051;31
2022/11/13 17:58:56;;;;;;;79.28;37.05;;;;;;;10.02;59.73;100950.97;4414396;32;19988;-96
2022/11/13 18:01:23;;;;;;;80.57;38.38;;;;;;;10.00;59.73;100958.78;4376477;32;20146;-96
2022/11/13 18:03:57;;;;;;;83.68;40.75;;;;;;;9.99;59.73;100959.66;4385481;32;20709;-96
2022/11/13 18:06:27;;;;;;;89.15;44.42;;;;;;;9.96;59.73;100954.50;4410462;32;20087;-95
2022/11/13 18:08:59;;;;;;;84.95;41.67;;;;;;;9.84;59.72;100960.66;4370530;32;20058;-96
2022/11/13 18:11:33;;;;;;;82.22;41.17;;;;;;;9.77;59.72;100971.16;4400496;32;20151;-96
2022/11/13 18:17:37;;;;;;;85.40;38.22;;;;;;;9.66;59.71;100967.78;4411737;32;20084;-96
2022/11/13 18:20:31;;;;;;;85.43;40.30;;;;;;;9.60;59.71;100966.09;4403622;32;20099;-96
2022/11/13 18:23:30;;;;;;;101.10;46.97;;;;;;;9.61;59.71;100974.75;4407271;32;20067;-96
2022/11/13 18:26:23;;;;;;;120.80;51.42;;;;;;;9.53;59.71;100970.50;4406440;32;20076;-96
2022/11/13 18:28:59;;;;;;;88.00;40.65;;;;;;;9.45;59.70;100974.88;4405810;32;20102;-96
2022/11/13 18:31:25;;;;;;;80.10;38.40;;;;;;;9.64;59.72;100965.19;4524347;27;20451;-96
2022/11/13 18:34:27;;;;;;;87.28;40.83;;;;;;;9.78;59.72;100965.06;4375471;32;20095;-96
2022/11/13 18:36:57;;;;;;;92.57;42.05;;;;;;;9.77;59.71;100963.34;4399350;32;20059;-96
2022/11/13 18:39:22;;;;;;;91.60;41.58;;;;;;;9.84;59.72;100965.00;4380646;32;20091;-96
2022/11/13 18:41:59;;;;;;;79.47;37.92;;;;;;;9.60;59.71;100973.03;4386058;32;20074;-96
2022/11/13 18:44:27;;;;;;;85.30;36.70;;;;;;;9.52;59.71;100965.31;4411627;32;20085;-95
2022/11/13 18:46:54;;;;;;;79.57;36.30;;;;;;;9.28;59.70;100973.28;4381258;32;20074;-95
2022/11/13 18:49:21;;;;;;;80.72;37.85;;;;;;;9.29;59.70;100973.28;4396092;32;20192;-96
2022/11/13 18:51:47;;;;;;;81.63;37.70;;;;;;;9.23;59.69;100976.78;4404936;32;20098;-95
2022/11/13 18:54:19;;;;;;;85.30;36.97;;;;;;;9.19;59.69;100980.25;4380911;32;20066;-96
2022/11/13 18:56:50;;;;;;;70.43;34.70;;;;;;;9.22;59.69;100976.78;4400065;32;20143;-96
2022/11/13 18:59:33;;;;;;;71.68;35.17;;;;;;;9.03;59.68;100983.84;4407380;32;20115;-96
2022/11/13 19:02:01;;;;;;;76.00;33.83;;;;;;;9.06;59.68;100981.22;4399780;32;20128;-95
2022/11/13 19:04:41;;;;;;;75.37;33.05;;;;;;;9.04;59.68;100984.72;4360000;32;20092;-96
2022/11/13 19:07:19;;;;;;;75.85;32.25;;;;;;;8.94;59.67;100983.88;4378099;32;20119;-96
2022/11/13 19:09:49;;;;;;;78.80;31.37;;;;;;;9.00;59.68;100983.00;4391227;32;20115;-96
2022/11/13 19:12:17;;;;;;;70.37;33.00;;;;;;;8.88;59.66;100977.00;4372806;32;20082;-96
2022/11/13 19:14:43;;;;;;;74.93;31.83;;;;;;;8.96;59.67;100981.28;4370689;32;20066;-96
2022/11/13 19:17:08;;;;;;;69.90;32.25;;;;;;;8.95;59.67;100969.16;4359891;32;20134;-96
2022/11/13 19:19:36;;;;;;;77.35;33.08;;;;;;;9.06;59.68;100977.78;4355730;32;20107;-96
2022/11/13 19:22:02;;;;;;;76.40;35.03;;;;;;;8.97;59.67;100977.81;4372100;32;20098;-96
2022/11/13 19:24:27;;;;;;;66.32;32.03;;;;;;;9.06;59.68;100983.81;4365854;32;20091;-96
2022/11/13 19:26:53;;;;;;;72.60;32.72;;;;;;;9.12;59.69;100975.97;4365584;32;20129;-96
2022/11/13 19:29:21;;;;;;;73.85;33.85;;;;;;;8.91;59.68;100974.38;4347439;32;20173;-96
2022/11/13 19:31:47;;;;;;;64.47;32.53;;;;;;;8.93;59.67;100972.63;4369939;32;20439;-96
2022/11/13 19:34:15;;;;;;;65.50;30.88;;;;;;;8.98;59.68;100975.19;4362473;32;20146;-94
2022/11/13 19:36:43;;;;;;;83.05;38.25;;;;;;;8.92;59.67;100976.09;4380882;32;20117;-95
2022/11/13 19:39:09;;;;;;;66.82;32.92;;;;;;;8.77;59.66;100978.81;4367676;32;20098;-96
2022/11/13 19:41:34;;;;;;;64.57;32.13;;;;;;;8.63;59.66;100971.94;4367532;32;20137;-95
2022/11/13 19:44:00;;;;;;;56.60;28.90;;;;;;;8.76;59.67;100981.41;4355773;32;20103;-95
2022/11/13 19:46:26;;;;;;;56.88;28.48;;;;;;;8.68;59.66;100981.41;4380170;32;20420;-96
2022/11/13 19:48:51;;;;;;;66.20;31.27;;;;;;;8.61;59.66;100978.00;4356892;32;20250;-96
2022/11/13 19:51:21;;;;;;;59.47;29.80;;;;;;;8.47;59.64;100984.97;4355531;32;20090;-96
2022/11/13 19:53:51;;;;;;;;;;;;;;;8.35;59.64;100977.25;4370528;32;20085;-96
2022/11/13 19:56:17;;;;;;;57.90;26.83;;;;;;;8.34;59.64;100985.03;4398114;32;20007;-96
2022/11/13 19:58:45;;;;;;;66.53;30.95;;;;;;;8.47;59.65;100982.37;4357442;32;20166;-96
2022/11/13 20:01:11;;;;;;;64.40;33.50;;;;;;;8.55;59.65;100985.81;4358754;32;20802;-96
2022/11/13 20:03:37;;;;;;;81.60;37.08;;;;;;;8.49;59.65;100983.22;4370877;32;20094;-94
2022/11/13 20:06:02;;;;;;;103.78;52.58;;;;;;;8.60;59.66;100978.00;4356638;32;20168;-95
2022/11/13 20:08:28;;;;;;;87.72;42.40;;;;;;;8.47;59.64;100979.78;4369150;32;20134;-96
2022/11/13 20:10:59;;;;;;;84.25;39.70;;;;;;;8.50;59.65;100984.09;4350333;32;193132;-94
2022/11/13 20:13:24;;;;;;;81.35;36.65;;;;;;;8.61;59.66;100977.13;4355042;32;20102;-94
2022/11/13 20:15:53;;;;;;;77.12;35.45;;;;;;;8.51;59.66;100978.88;4352054;32;20706;-96
2022/11/13 20:18:19;;;;;;;87.05;39.35;;;;;;;8.60;59.66;100975.41;4352436;32;20174;-95
2022/11/13 20:20:44;;;;;;;102.45;40.55;;;;;;;8.39;59.64;100981.53;4368761;32;20502;-95
2022/11/13 20:23:10;;;;;;;87.40;37.72;;;;;;;8.56;59.65;100981.50;4363701;32;20133;-95
2022/11/13 20:25:35;;;;;;;79.78;37.33;;;;;;;8.81;59.66;100975.31;4354718;32;20115;-95
2022/11/13 20:28:00;;;;;;;88.87;37.60;;;;;;;8.68;59.66;100977.97;4353060;32;20235;-94
2022/11/13 20:30:26;;;;;;;84.80;34.65;;;;;;;8.37;59.65;100975.50;4364219;32;20162;-95
2022/11/13 20:32:51;;;;;;;69.18;33.17;;;;;;;8.56;59.65;100971.97;4369287;32;20107;-95
2022/11/13 20:35:17;;;;;;;72.03;33.33;;;;;;;8.34;59.64;100978.09;4349567;32;20157;-95